sensor_id;sensor_type;location;lat;lon;timestamp;P1;durP1;ratioP1;P2;durP2;ratioP2
49626;SDS011;35527;54.616;39.786;2024-03-25T00:02:57;10.93;;;5.72;;
49626;SDS011;35527;54.616;39.786;2024-03-25T00:06:01;15.00;;;6.18;;
49626;SDS011;35527;54.616;39.786;2024-03-25T00:09:04;18.27;;;7.63;;
49626;SDS011;35527;54.616;39.786;2024-03-25T00:12:11;20.20;;;8.40;;
49626;SDS011;35527;54.616;39.786;2024-03-25T00:15:14;20.73;;;13.30;;
49626;SDS011;35527;54.616;39.786;2024-03-25T00:18:18;13.00;;;6.45;;
49626;SDS011;35527;54.616;39.786;2024-03-25T00:21:23;16.10;;;7.95;;
49626;SDS011;35527;54.616;39.786;2024-03-25T00:24:28;20.33;;;13.73;;
49626;SDS011;35527;54.616;39.786;2024-03-25T00:27:29;16.08;;;7.05;;
49626;SDS011;35527;54.616;39.786;2024-03-25T00:30:33;14.05;;;6.85;;
49626;SDS011;35527;54.616;39.786;2024-03-25T00:33:38;20.00;;;13.10;;
49626;SDS011;35527;54.616;39.786;2024-03-25T00:36:39;13.05;;;7.50;;
49626;SDS011;35527;54.616;39.786;2024-03-25T00:39:41;16.92;;;7.38;;
49626;SDS011;35527;54.616;39.786;2024-03-25T00:42:44;11.50;;;6.00;;
49626;SDS011;35527;54.616;39.786;2024-03-25T00:45:49;14.00;;;7.50;;
49626;SDS011;35527;54.616;39.786;2024-03-25T00:48:51;20.60;;;14.23;;
49626;SDS011;35527;54.616;39.786;2024-03-25T00:51:56;16.35;;;7.68;;
49626;SDS011;35527;54.616;39.786;2024-03-25T00:54:57;11.65;;;6.10;;
49626;SDS011;35527;54.616;39.786;2024-03-25T01:01:26;16.15;;;8.57;;
49626;SDS011;35527;54.616;39.786;2024-03-25T01:04:28;13.20;;;6.18;;
49626;SDS011;35527;54.616;39.786;2024-03-25T01:07:31;20.80;;;13.95;;
49626;SDS011;35527;54.616;39.786;2024-03-25T01:10:37;18.58;;;7.43;;
49626;SDS011;35527;54.616;39.786;2024-03-25T01:13:41;24.75;;;15.57;;
49626;SDS011;35527;54.616;39.786;2024-03-25T01:16:42;18.85;;;8.90;;
49626;SDS011;35527;54.616;39.786;2024-03-25T01:19:44;20.90;;;9.88;;
49626;SDS011;35527;54.616;39.786;2024-03-25T01:22:51;13.98;;;6.47;;
49626;SDS011;35527;54.616;39.786;2024-03-25T01:28:54;17.23;;;7.60;;
49626;SDS011;35527;54.616;39.786;2024-03-25T01:31:56;20.73;;;8.43;;
49626;SDS011;35527;54.616;39.786;2024-03-25T01:35:00;18.13;;;6.88;;
49626;SDS011;35527;54.616;39.786;2024-03-25T01:38:03;16.40;;;8.85;;
49626;SDS011;35527;54.616;39.786;2024-03-25T01:41:11;17.52;;;7.18;;
49626;SDS011;35527;54.616;39.786;2024-03-25T01:44:15;14.95;;;6.70;;
49626;SDS011;35527;54.616;39.786;2024-03-25T01:47:18;21.27;;;15.32;;
49626;SDS011;35527;54.616;39.786;2024-03-25T01:50:21;19.25;;;8.10;;
49626;SDS011;35527;54.616;39.786;2024-03-25T01:53:23;16.23;;;7.68;;
49626;SDS011;35527;54.616;39.786;2024-03-25T01:56:29;18.55;;;8.85;;
49626;SDS011;35527;54.616;39.786;2024-03-25T02:02:37;12.38;;;5.95;;
49626;SDS011;35527;54.616;39.786;2024-03-25T02:08:45;17.75;;;8.02;;
49626;SDS011;35527;54.616;39.786;2024-03-25T02:11:49;16.02;;;8.40;;
49626;SDS011;35527;54.616;39.786;2024-03-25T02:14:51;17.13;;;8.63;;
49626;SDS011;35527;54.616;39.786;2024-03-25T02:17:53;16.52;;;6.82;;
49626;SDS011;35527;54.616;39.786;2024-03-25T02:20:57;19.67;;;9.20;;
49626;SDS011;35527;54.616;39.786;2024-03-25T02:24:00;26.52;;;16.92;;
49626;SDS011;35527;54.616;39.786;2024-03-25T02:27:08;22.38;;;9.63;;
49626;SDS011;35527;54.616;39.786;2024-03-25T02:30:12;18.80;;;8.85;;
49626;SDS011;35527;54.616;39.786;2024-03-25T02:33:16;23.88;;;9.52;;
49626;SDS011;35527;54.616;39.786;2024-03-25T02:36:24;21.80;;;9.07;;
49626;SDS011;35527;54.616;39.786;2024-03-25T02:39:28;20.75;;;9.65;;
49626;SDS011;35527;54.616;39.786;2024-03-25T02:42:30;23.08;;;9.93;;
49626;SDS011;35527;54.616;39.786;2024-03-25T02:45:33;33.42;;;21.13;;
49626;SDS011;35527;54.616;39.786;2024-03-25T02:48:37;21.63;;;8.57;;
49626;SDS011;35527;54.616;39.786;2024-03-25T02:51:38;25.63;;;10.73;;
49626;SDS011;35527;54.616;39.786;2024-03-25T02:54:41;29.35;;;11.20;;
49626;SDS011;35527;54.616;39.786;2024-03-25T02:57:42;27.55;;;11.35;;
49626;SDS011;35527;54.616;39.786;2024-03-25T03:00:48;34.10;;;11.93;;
49626;SDS011;35527;54.616;39.786;2024-03-25T03:03:50;39.00;;;22.42;;
49626;SDS011;35527;54.616;39.786;2024-03-25T03:06:53;32.97;;;12.65;;
49626;SDS011;35527;54.616;39.786;2024-03-25T03:09:56;44.58;;;24.95;;
49626;SDS011;35527;54.616;39.786;2024-03-25T03:12:57;33.42;;;12.63;;
49626;SDS011;35527;54.616;39.786;2024-03-25T03:15:59;28.17;;;11.30;;
49626;SDS011;35527;54.616;39.786;2024-03-25T03:19:01;26.67;;;11.52;;
49626;SDS011;35527;54.616;39.786;2024-03-25T03:22:04;35.95;;;12.32;;
49626;SDS011;35527;54.616;39.786;2024-03-25T03:25:07;35.40;;;14.02;;
49626;SDS011;35527;54.616;39.786;2024-03-25T03:28:09;50.85;;;26.83;;
49626;SDS011;35527;54.616;39.786;2024-03-25T03:31:10;47.45;;;26.17;;
49626;SDS011;35527;54.616;39.786;2024-03-25T03:34:14;28.73;;;12.30;;
49626;SDS011;35527;54.616;39.786;2024-03-25T03:37:16;39.20;;;12.50;;
49626;SDS011;35527;54.616;39.786;2024-03-25T03:40:19;37.13;;;13.98;;
49626;SDS011;35527;54.616;39.786;2024-03-25T03:43:23;37.38;;;12.30;;
49626;SDS011;35527;54.616;39.786;2024-03-25T03:46:26;42.47;;;12.95;;
49626;SDS011;35527;54.616;39.786;2024-03-25T03:49:31;61.03;;;29.50;;
49626;SDS011;35527;54.616;39.786;2024-03-25T03:52:40;37.03;;;14.43;;
49626;SDS011;35527;54.616;39.786;2024-03-25T03:55:42;36.60;;;14.13;;
49626;SDS011;35527;54.616;39.786;2024-03-25T03:58:50;40.10;;;13.35;;
49626;SDS011;35527;54.616;39.786;2024-03-25T04:01:52;30.15;;;12.25;;
49626;SDS011;35527;54.616;39.786;2024-03-25T04:04:57;33.53;;;13.15;;
49626;SDS011;35527;54.616;39.786;2024-03-25T04:08:02;39.95;;;13.35;;
49626;SDS011;35527;54.616;39.786;2024-03-25T04:11:04;41.88;;;13.45;;
49626;SDS011;35527;54.616;39.786;2024-03-25T04:14:10;33.13;;;12.50;;
49626;SDS011;35527;54.616;39.786;2024-03-25T04:17:15;37.92;;;13.23;;
49626;SDS011;35527;54.616;39.786;2024-03-25T04:20:17;28.13;;;11.10;;
49626;SDS011;35527;54.616;39.786;2024-03-25T04:23:18;37.30;;;14.30;;
49626;SDS011;35527;54.616;39.786;2024-03-25T04:26:25;38.13;;;13.15;;
49626;SDS011;35527;54.616;39.786;2024-03-25T04:29:27;34.97;;;14.73;;
49626;SDS011;35527;54.616;39.786;2024-03-25T04:32:34;31.38;;;12.48;;
49626;SDS011;35527;54.616;39.786;2024-03-25T04:38:43;27.85;;;11.05;;
49626;SDS011;35527;54.616;39.786;2024-03-25T04:41:45;33.95;;;13.35;;
49626;SDS011;35527;54.616;39.786;2024-03-25T04:44:48;48.05;;;27.48;;
49626;SDS011;35527;54.616;39.786;2024-03-25T04:47:49;34.15;;;13.45;;
49626;SDS011;35527;54.616;39.786;2024-03-25T04:50:53;20.65;;;9.65;;
49626;SDS011;35527;54.616;39.786;2024-03-25T04:54:00;39.90;;;16.85;;
49626;SDS011;35527;54.616;39.786;2024-03-25T04:57:01;45.70;;;28.30;;
49626;SDS011;35527;54.616;39.786;2024-03-25T05:00:04;32.45;;;14.20;;
49626;SDS011;35527;54.616;39.786;2024-03-25T05:03:11;29.13;;;13.70;;
49626;SDS011;35527;54.616;39.786;2024-03-25T05:06:14;23.27;;;11.37;;
49626;SDS011;35527;54.616;39.786;2024-03-25T05:09:16;29.20;;;14.48;;
49626;SDS011;35527;54.616;39.786;2024-03-25T05:12:18;22.60;;;11.85;;
49626;SDS011;35527;54.616;39.786;2024-03-25T05:15:25;21.42;;;10.60;;
49626;SDS011;35527;54.616;39.786;2024-03-25T05:18:29;21.83;;;14.70;;
49626;SDS011;35527;54.616;39.786;2024-03-25T05:21:31;20.77;;;10.02;;
49626;SDS011;35527;54.616;39.786;2024-03-25T05:24:34;19.95;;;9.10;;
49626;SDS011;35527;54.616;39.786;2024-03-25T05:27:37;13.65;;;5.85;;
49626;SDS011;35527;54.616;39.786;2024-03-25T05:30:41;18.25;;;12.15;;
49626;SDS011;35527;54.616;39.786;2024-03-25T05:33:43;13.98;;;7.22;;
49626;SDS011;35527;54.616;39.786;2024-03-25T05:36:45;17.98;;;7.65;;
49626;SDS011;35527;54.616;39.786;2024-03-25T05:39:49;19.15;;;13.80;;
49626;SDS011;35527;54.616;39.786;2024-03-25T05:42:53;15.23;;;5.50;;
49626;SDS011;35527;54.616;39.786;2024-03-25T05:45:56;14.32;;;6.15;;
49626;SDS011;35527;54.616;39.786;2024-03-25T05:49:01;12.55;;;5.82;;
49626;SDS011;35527;54.616;39.786;2024-03-25T05:52:08;9.68;;;4.47;;
49626;SDS011;35527;54.616;39.786;2024-03-25T05:55:13;7.40;;;3.58;;
49626;SDS011;35527;54.616;39.786;2024-03-25T05:58:16;11.27;;;3.58;;
49626;SDS011;35527;54.616;39.786;2024-03-25T06:01:17;8.75;;;2.78;;
49626;SDS011;35527;54.616;39.786;2024-03-25T06:04:22;6.88;;;2.60;;
49626;SDS011;35527;54.616;39.786;2024-03-25T06:07:27;6.28;;;2.40;;
49626;SDS011;35527;54.616;39.786;2024-03-25T06:10:34;4.97;;;1.88;;
49626;SDS011;35527;54.616;39.786;2024-03-25T06:13:38;4.15;;;1.80;;
49626;SDS011;35527;54.616;39.786;2024-03-25T06:16:43;4.70;;;1.70;;
49626;SDS011;35527;54.616;39.786;2024-03-25T06:19:45;6.50;;;3.33;;
49626;SDS011;35527;54.616;39.786;2024-03-25T06:22:47;5.57;;;2.72;;
49626;SDS011;35527;54.616;39.786;2024-03-25T06:25:52;7.68;;;3.67;;
49626;SDS011;35527;54.616;39.786;2024-03-25T06:28:55;7.78;;;3.78;;
49626;SDS011;35527;54.616;39.786;2024-03-25T06:32:04;6.25;;;4.18;;
49626;SDS011;35527;54.616;39.786;2024-03-25T06:35:24;6.47;;;2.85;;
49626;SDS011;35527;54.616;39.786;2024-03-25T06:38:26;6.05;;;3.80;;
49626;SDS011;35527;54.616;39.786;2024-03-25T06:41:31;4.43;;;1.83;;
49626;SDS011;35527;54.616;39.786;2024-03-25T06:44:33;5.30;;;2.08;;
49626;SDS011;35527;54.616;39.786;2024-03-25T06:47:35;2.90;;;1.40;;
49626;SDS011;35527;54.616;39.786;2024-03-25T06:50:37;5.50;;;2.03;;
49626;SDS011;35527;54.616;39.786;2024-03-25T06:53:42;6.07;;;3.15;;
49626;SDS011;35527;54.616;39.786;2024-03-25T06:56:44;4.15;;;1.70;;
49626;SDS011;35527;54.616;39.786;2024-03-25T06:59:46;4.47;;;1.80;;
49626;SDS011;35527;54.616;39.786;2024-03-25T07:02:50;4.00;;;2.08;;
49626;SDS011;35527;54.616;39.786;2024-03-25T07:05:53;3.90;;;1.73;;
49626;SDS011;35527;54.616;39.786;2024-03-25T07:08:57;4.32;;;1.77;;
49626;SDS011;35527;54.616;39.786;2024-03-25T07:11:59;4.78;;;2.20;;
49626;SDS011;35527;54.616;39.786;2024-03-25T07:15:00;4.70;;;2.00;;
49626;SDS011;35527;54.616;39.786;2024-03-25T07:18:03;2.88;;;1.45;;
49626;SDS011;35527;54.616;39.786;2024-03-25T07:21:07;3.72;;;2.10;;
49626;SDS011;35527;54.616;39.786;2024-03-25T07:24:08;4.03;;;1.30;;
49626;SDS011;35527;54.616;39.786;2024-03-25T07:27:10;4.30;;;2.35;;
49626;SDS011;35527;54.616;39.786;2024-03-25T07:30:12;3.28;;;1.52;;
49626;SDS011;35527;54.616;39.786;2024-03-25T07:33:14;8.73;;;2.65;;
49626;SDS011;35527;54.616;39.786;2024-03-25T07:36:17;4.35;;;1.45;;
49626;SDS011;35527;54.616;39.786;2024-03-25T07:39:20;5.38;;;1.52;;
49626;SDS011;35527;54.616;39.786;2024-03-25T07:42:27;3.45;;;1.40;;
49626;SDS011;35527;54.616;39.786;2024-03-25T07:45:30;2.63;;;1.30;;
49626;SDS011;35527;54.616;39.786;2024-03-25T07:48:32;4.82;;;1.63;;
49626;SDS011;35527;54.616;39.786;2024-03-25T07:51:38;4.47;;;2.10;;
49626;SDS011;35527;54.616;39.786;2024-03-25T07:54:41;3.00;;;1.30;;
49626;SDS011;35527;54.616;39.786;2024-03-25T07:57:44;2.83;;;1.42;;
49626;SDS011;35527;54.616;39.786;2024-03-25T08:00:45;3.92;;;1.17;;
49626;SDS011;35527;54.616;39.786;2024-03-25T08:03:47;2.88;;;1.40;;
49626;SDS011;35527;54.616;39.786;2024-03-25T08:06:51;3.85;;;1.38;;
49626;SDS011;35527;54.616;39.786;2024-03-25T08:09:53;1.98;;;1.13;;
49626;SDS011;35527;54.616;39.786;2024-03-25T08:12:57;2.85;;;1.08;;
49626;SDS011;35527;54.616;39.786;2024-03-25T08:16:00;2.90;;;1.40;;
49626;SDS011;35527;54.616;39.786;2024-03-25T08:19:04;4.28;;;1.50;;
49626;SDS011;35527;54.616;39.786;2024-03-25T08:22:08;2.47;;;1.10;;
49626;SDS011;35527;54.616;39.786;2024-03-25T08:25:10;2.15;;;1.17;;
49626;SDS011;35527;54.616;39.786;2024-03-25T08:28:12;4.80;;;1.40;;
49626;SDS011;35527;54.616;39.786;2024-03-25T08:31:18;3.30;;;1.13;;
49626;SDS011;35527;54.616;39.786;2024-03-25T08:34:20;2.47;;;1.17;;
49626;SDS011;35527;54.616;39.786;2024-03-25T08:37:24;3.25;;;1.58;;
49626;SDS011;35527;54.616;39.786;2024-03-25T08:40:28;2.15;;;1.20;;
49626;SDS011;35527;54.616;39.786;2024-03-25T08:43:33;4.32;;;1.23;;
49626;SDS011;35527;54.616;39.786;2024-03-25T08:46:35;2.70;;;1.27;;
49626;SDS011;35527;54.616;39.786;2024-03-25T08:49:39;3.03;;;1.30;;
49626;SDS011;35527;54.616;39.786;2024-03-25T08:52:42;3.35;;;1.42;;
49626;SDS011;35527;54.616;39.786;2024-03-25T08:55:48;2.88;;;1.50;;
49626;SDS011;35527;54.616;39.786;2024-03-25T08:58:52;1.70;;;0.98;;
49626;SDS011;35527;54.616;39.786;2024-03-25T09:01:58;2.35;;;1.00;;
49626;SDS011;35527;54.616;39.786;2024-03-25T09:04:59;2.53;;;1.23;;
49626;SDS011;35527;54.616;39.786;2024-03-25T09:08:08;4.17;;;1.23;;
49626;SDS011;35527;54.616;39.786;2024-03-25T09:11:12;1.73;;;0.98;;
49626;SDS011;35527;54.616;39.786;2024-03-25T09:14:15;2.72;;;1.67;;
49626;SDS011;35527;54.616;39.786;2024-03-25T09:17:20;2.47;;;1.50;;
49626;SDS011;35527;54.616;39.786;2024-03-25T09:23:29;4.30;;;1.30;;
49626;SDS011;35527;54.616;39.786;2024-03-25T09:26:31;2.17;;;1.20;;
49626;SDS011;35527;54.616;39.786;2024-03-25T09:29:36;3.50;;;1.30;;
49626;SDS011;35527;54.616;39.786;2024-03-25T09:32:42;3.77;;;1.80;;
49626;SDS011;35527;54.616;39.786;2024-03-25T09:35:45;4.68;;;2.03;;
49626;SDS011;35527;54.616;39.786;2024-03-25T09:38:47;4.60;;;2.67;;
49626;SDS011;35527;54.616;39.786;2024-03-25T09:41:52;4.05;;;1.83;;
49626;SDS011;35527;54.616;39.786;2024-03-25T09:45:01;4.05;;;1.77;;
49626;SDS011;35527;54.616;39.786;2024-03-25T09:48:05;6.72;;;3.28;;
49626;SDS011;35527;54.616;39.786;2024-03-25T09:51:11;4.25;;;1.67;;
49626;SDS011;35527;54.616;39.786;2024-03-25T09:54:14;4.88;;;1.90;;
49626;SDS011;35527;54.616;39.786;2024-03-25T09:57:20;4.63;;;2.20;;
49626;SDS011;35527;54.616;39.786;2024-03-25T10:00:23;5.43;;;2.70;;
49626;SDS011;35527;54.616;39.786;2024-03-25T10:03:26;3.35;;;1.58;;
49626;SDS011;35527;54.616;39.786;2024-03-25T10:06:31;4.68;;;3.03;;
49626;SDS011;35527;54.616;39.786;2024-03-25T10:09:37;4.63;;;2.97;;
49626;SDS011;35527;54.616;39.786;2024-03-25T10:12:40;3.28;;;1.92;;
49626;SDS011;35527;54.616;39.786;2024-03-25T10:15:43;3.85;;;2.17;;
49626;SDS011;35527;54.616;39.786;2024-03-25T10:18:45;4.95;;;1.88;;
49626;SDS011;35527;54.616;39.786;2024-03-25T10:21:49;4.82;;;2.20;;
49626;SDS011;35527;54.616;39.786;2024-03-25T10:24:51;4.25;;;2.53;;
49626;SDS011;35527;54.616;39.786;2024-03-25T10:27:57;4.70;;;2.90;;
49626;SDS011;35527;54.616;39.786;2024-03-25T10:31:04;4.53;;;2.30;;
49626;SDS011;35527;54.616;39.786;2024-03-25T10:34:11;4.80;;;2.83;;
49626;SDS011;35527;54.616;39.786;2024-03-25T10:37:16;4.80;;;1.70;;
49626;SDS011;35527;54.616;39.786;2024-03-25T10:40:22;4.97;;;2.13;;
49626;SDS011;35527;54.616;39.786;2024-03-25T10:43:29;4.47;;;2.10;;
49626;SDS011;35527;54.616;39.786;2024-03-25T10:46:33;4.40;;;2.72;;
49626;SDS011;35527;54.616;39.786;2024-03-25T10:49:46;4.32;;;2.42;;
49626;SDS011;35527;54.616;39.786;2024-03-25T10:52:50;4.00;;;2.20;;
49626;SDS011;35527;54.616;39.786;2024-03-25T10:55:56;4.45;;;2.03;;
49626;SDS011;35527;54.616;39.786;2024-03-25T10:59:06;6.90;;;3.28;;
49626;SDS011;35527;54.616;39.786;2024-03-25T11:02:11;4.85;;;1.90;;
49626;SDS011;35527;54.616;39.786;2024-03-25T11:05:16;5.05;;;2.28;;
49626;SDS011;35527;54.616;39.786;2024-03-25T11:08:20;6.40;;;4.00;;
49626;SDS011;35527;54.616;39.786;2024-03-25T11:11:23;6.53;;;2.47;;
49626;SDS011;35527;54.616;39.786;2024-03-25T11:14:25;4.88;;;2.30;;
49626;SDS011;35527;54.616;39.786;2024-03-25T11:17:28;7.05;;;3.42;;
49626;SDS011;35527;54.616;39.786;2024-03-25T11:20:29;6.13;;;2.67;;
49626;SDS011;35527;54.616;39.786;2024-03-25T11:23:40;5.65;;;2.40;;
49626;SDS011;35527;54.616;39.786;2024-03-25T11:26:43;6.35;;;4.55;;
49626;SDS011;35527;54.616;39.786;2024-03-25T11:29:53;6.00;;;2.92;;
49626;SDS011;35527;54.616;39.786;2024-03-25T11:33:00;7.77;;;2.73;;
49626;SDS011;35527;54.616;39.786;2024-03-25T11:36:03;5.82;;;2.97;;
49626;SDS011;35527;54.616;39.786;2024-03-25T11:39:06;5.80;;;3.83;;
49626;SDS011;35527;54.616;39.786;2024-03-25T11:42:14;5.28;;;2.60;;
49626;SDS011;35527;54.616;39.786;2024-03-25T11:45:17;5.13;;;2.50;;
49626;SDS011;35527;54.616;39.786;2024-03-25T11:48:26;6.85;;;3.80;;
49626;SDS011;35527;54.616;39.786;2024-03-25T11:51:30;6.90;;;3.83;;
49626;SDS011;35527;54.616;39.786;2024-03-25T11:54:32;6.20;;;4.15;;
49626;SDS011;35527;54.616;39.786;2024-03-25T11:57:35;5.38;;;3.50;;
49626;SDS011;35527;54.616;39.786;2024-03-25T12:00:43;6.05;;;2.78;;
49626;SDS011;35527;54.616;39.786;2024-03-25T12:03:55;6.03;;;4.07;;
49626;SDS011;35527;54.616;39.786;2024-03-25T12:06:57;6.32;;;3.95;;
49626;SDS011;35527;54.616;39.786;2024-03-25T12:10:00;7.40;;;3.78;;
49626;SDS011;35527;54.616;39.786;2024-03-25T12:13:25;6.55;;;3.08;;
49626;SDS011;35527;54.616;39.786;2024-03-25T12:16:28;7.60;;;3.40;;
49626;SDS011;35527;54.616;39.786;2024-03-25T12:19:29;6.50;;;4.15;;
49626;SDS011;35527;54.616;39.786;2024-03-25T12:22:31;10.02;;;3.25;;
49626;SDS011;35527;54.616;39.786;2024-03-25T12:25:38;5.25;;;3.40;;
49626;SDS011;35527;54.616;39.786;2024-03-25T12:28:40;5.63;;;3.80;;
49626;SDS011;35527;54.616;39.786;2024-03-25T12:31:42;6.97;;;2.28;;
49626;SDS011;35527;54.616;39.786;2024-03-25T12:34:44;5.43;;;3.90;;
49626;SDS011;35527;54.616;39.786;2024-03-25T12:37:50;6.38;;;2.63;;
49626;SDS011;35527;54.616;39.786;2024-03-25T12:40:53;4.93;;;2.30;;
49626;SDS011;35527;54.616;39.786;2024-03-25T12:44:06;8.15;;;4.05;;
49626;SDS011;35527;54.616;39.786;2024-03-25T12:47:09;5.30;;;3.42;;
49626;SDS011;35527;54.616;39.786;2024-03-25T12:50:12;5.22;;;2.65;;
49626;SDS011;35527;54.616;39.786;2024-03-25T12:53:16;6.05;;;3.67;;
49626;SDS011;35527;54.616;39.786;2024-03-25T12:56:20;5.60;;;3.75;;
49626;SDS011;35527;54.616;39.786;2024-03-25T12:59:22;5.45;;;2.35;;
49626;SDS011;35527;54.616;39.786;2024-03-25T13:02:24;4.35;;;2.35;;
49626;SDS011;35527;54.616;39.786;2024-03-25T13:05:27;5.53;;;2.78;;
49626;SDS011;35527;54.616;39.786;2024-03-25T13:08:31;5.55;;;2.60;;
49626;SDS011;35527;54.616;39.786;2024-03-25T13:11:33;5.38;;;2.72;;
49626;SDS011;35527;54.616;39.786;2024-03-25T13:14:37;5.43;;;2.58;;
49626;SDS011;35527;54.616;39.786;2024-03-25T13:17:40;5.33;;;3.70;;
49626;SDS011;35527;54.616;39.786;2024-03-25T13:20:43;5.65;;;3.30;;
49626;SDS011;35527;54.616;39.786;2024-03-25T13:23:45;6.40;;;4.00;;
49626;SDS011;35527;54.616;39.786;2024-03-25T13:26:48;4.80;;;2.33;;
49626;SDS011;35527;54.616;39.786;2024-03-25T13:29:51;4.72;;;2.28;;
49626;SDS011;35527;54.616;39.786;2024-03-25T13:32:55;5.07;;;3.23;;
49626;SDS011;35527;54.616;39.786;2024-03-25T13:35:59;5.22;;;2.88;;
49626;SDS011;35527;54.616;39.786;2024-03-25T13:39:03;4.45;;;2.53;;
49626;SDS011;35527;54.616;39.786;2024-03-25T13:42:06;4.25;;;1.98;;
49626;SDS011;35527;54.616;39.786;2024-03-25T13:45:07;4.30;;;2.25;;
49626;SDS011;35527;54.616;39.786;2024-03-25T13:48:11;5.10;;;2.08;;
49626;SDS011;35527;54.616;39.786;2024-03-25T13:51:15;4.00;;;1.92;;
49626;SDS011;35527;54.616;39.786;2024-03-25T13:54:16;3.70;;;2.00;;
49626;SDS011;35527;54.616;39.786;2024-03-25T13:57:19;4.57;;;2.30;;
49626;SDS011;35527;54.616;39.786;2024-03-25T14:00:25;5.65;;;2.97;;
49626;SDS011;35527;54.616;39.786;2024-03-25T14:03:32;4.95;;;3.40;;
49626;SDS011;35527;54.616;39.786;2024-03-25T14:06:35;5.28;;;2.40;;
49626;SDS011;35527;54.616;39.786;2024-03-25T14:09:38;5.10;;;2.40;;
49626;SDS011;35527;54.616;39.786;2024-03-25T14:12:40;4.85;;;2.33;;
49626;SDS011;35527;54.616;39.786;2024-03-25T14:15:42;6.38;;;3.88;;
49626;SDS011;35527;54.616;39.786;2024-03-25T14:18:45;5.60;;;3.70;;
49626;SDS011;35527;54.616;39.786;2024-03-25T14:21:50;5.25;;;2.42;;
49626;SDS011;35527;54.616;39.786;2024-03-25T14:24:52;6.68;;;4.03;;
49626;SDS011;35527;54.616;39.786;2024-03-25T14:27:58;5.22;;;2.47;;
49626;SDS011;35527;54.616;39.786;2024-03-25T14:31:00;5.60;;;2.70;;
49626;SDS011;35527;54.616;39.786;2024-03-25T14:34:01;6.03;;;2.53;;
49626;SDS011;35527;54.616;39.786;2024-03-25T14:37:04;6.13;;;2.65;;
49626;SDS011;35527;54.616;39.786;2024-03-25T14:40:07;4.55;;;2.40;;
49626;SDS011;35527;54.616;39.786;2024-03-25T14:43:10;7.47;;;3.10;;
49626;SDS011;35527;54.616;39.786;2024-03-25T14:46:13;5.40;;;2.13;;
49626;SDS011;35527;54.616;39.786;2024-03-25T14:49:16;5.80;;;3.63;;
49626;SDS011;35527;54.616;39.786;2024-03-25T14:52:19;7.35;;;2.78;;
49626;SDS011;35527;54.616;39.786;2024-03-25T14:55:26;8.00;;;4.95;;
49626;SDS011;35527;54.616;39.786;2024-03-25T14:58:28;8.70;;;3.55;;
49626;SDS011;35527;54.616;39.786;2024-03-25T15:01:31;7.18;;;3.15;;
49626;SDS011;35527;54.616;39.786;2024-03-25T15:04:36;8.82;;;5.55;;
49626;SDS011;35527;54.616;39.786;2024-03-25T15:07:39;6.95;;;2.92;;
49626;SDS011;35527;54.616;39.786;2024-03-25T15:10:41;5.85;;;2.90;;
49626;SDS011;35527;54.616;39.786;2024-03-25T15:13:45;4.73;;;2.67;;
49626;SDS011;35527;54.616;39.786;2024-03-25T15:16:53;9.27;;;3.60;;
49626;SDS011;35527;54.616;39.786;2024-03-25T15:19:55;8.95;;;4.80;;
49626;SDS011;35527;54.616;39.786;2024-03-25T15:22:57;5.93;;;2.90;;
49626;SDS011;35527;54.616;39.786;2024-03-25T15:25:59;7.18;;;3.53;;
49626;SDS011;35527;54.616;39.786;2024-03-25T15:29:06;10.98;;;6.53;;
49626;SDS011;35527;54.616;39.786;2024-03-25T15:32:10;8.48;;;3.85;;
49626;SDS011;35527;54.616;39.786;2024-03-25T15:35:11;11.77;;;3.75;;
49626;SDS011;35527;54.616;39.786;2024-03-25T15:38:14;9.38;;;6.70;;
49626;SDS011;35527;54.616;39.786;2024-03-25T15:41:18;10.40;;;4.95;;
49626;SDS011;35527;54.616;39.786;2024-03-25T15:44:21;8.25;;;4.28;;
49626;SDS011;35527;54.616;39.786;2024-03-25T15:47:22;10.55;;;5.05;;
49626;SDS011;35527;54.616;39.786;2024-03-25T15:50:28;11.13;;;5.32;;
49626;SDS011;35527;54.616;39.786;2024-03-25T15:53:31;12.45;;;8.63;;
49626;SDS011;35527;54.616;39.786;2024-03-25T15:56:33;11.93;;;5.65;;
49626;SDS011;35527;54.616;39.786;2024-03-25T15:59:37;11.65;;;5.55;;
49626;SDS011;35527;54.616;39.786;2024-03-25T16:02:41;11.10;;;8.60;;
49626;SDS011;35527;54.616;39.786;2024-03-25T16:05:45;10.75;;;5.35;;
49626;SDS011;35527;54.616;39.786;2024-03-25T16:08:48;12.32;;;9.80;;
49626;SDS011;35527;54.616;39.786;2024-03-25T16:11:49;11.15;;;5.78;;
49626;SDS011;35527;54.616;39.786;2024-03-25T16:14:53;11.70;;;5.28;;
49626;SDS011;35527;54.616;39.786;2024-03-25T16:17:58;9.88;;;5.25;;
49626;SDS011;35527;54.616;39.786;2024-03-25T16:21:02;13.75;;;10.55;;
49626;SDS011;35527;54.616;39.786;2024-03-25T16:24:04;10.18;;;4.75;;
49626;SDS011;35527;54.616;39.786;2024-03-25T16:27:07;13.85;;;5.90;;
49626;SDS011;35527;54.616;39.786;2024-03-25T16:30:12;14.98;;;6.40;;
49626;SDS011;35527;54.616;39.786;2024-03-25T16:33:14;12.00;;;5.93;;
49626;SDS011;35527;54.616;39.786;2024-03-25T16:36:19;12.95;;;5.32;;
49626;SDS011;35527;54.616;39.786;2024-03-25T16:39:23;14.18;;;6.00;;
49626;SDS011;35527;54.616;39.786;2024-03-25T16:42:27;16.48;;;6.93;;
49626;SDS011;35527;54.616;39.786;2024-03-25T16:45:30;11.90;;;5.38;;
49626;SDS011;35527;54.616;39.786;2024-03-25T16:48:32;12.43;;;6.05;;
49626;SDS011;35527;54.616;39.786;2024-03-25T16:51:35;14.77;;;6.10;;
49626;SDS011;35527;54.616;39.786;2024-03-25T16:54:39;14.38;;;6.05;;
49626;SDS011;35527;54.616;39.786;2024-03-25T16:57:42;12.50;;;5.80;;
49626;SDS011;35527;54.616;39.786;2024-03-25T17:00:44;19.23;;;6.75;;
49626;SDS011;35527;54.616;39.786;2024-03-25T17:03:47;12.95;;;6.00;;
49626;SDS011;35527;54.616;39.786;2024-03-25T17:06:49;12.63;;;10.38;;
49626;SDS011;35527;54.616;39.786;2024-03-25T17:09:52;13.55;;;5.72;;
49626;SDS011;35527;54.616;39.786;2024-03-25T17:12:53;10.60;;;5.93;;
49626;SDS011;35527;54.616;39.786;2024-03-25T17:15:55;11.02;;;5.78;;
49626;SDS011;35527;54.616;39.786;2024-03-25T17:19:01;11.93;;;5.78;;
49626;SDS011;35527;54.616;39.786;2024-03-25T17:22:05;15.68;;;6.35;;
49626;SDS011;35527;54.616;39.786;2024-03-25T17:25:06;12.45;;;6.07;;
49626;SDS011;35527;54.616;39.786;2024-03-25T17:28:09;15.52;;;6.10;;
49626;SDS011;35527;54.616;39.786;2024-03-25T17:31:12;12.00;;;6.20;;
49626;SDS011;35527;54.616;39.786;2024-03-25T17:34:15;13.60;;;6.03;;
49626;SDS011;35527;54.616;39.786;2024-03-25T17:37:22;9.88;;;5.32;;
49626;SDS011;35527;54.616;39.786;2024-03-25T17:40:25;13.27;;;6.50;;
49626;SDS011;35527;54.616;39.786;2024-03-25T17:43:29;12.80;;;10.13;;
49626;SDS011;35527;54.616;39.786;2024-03-25T17:46:32;12.00;;;5.35;;
49626;SDS011;35527;54.616;39.786;2024-03-25T17:49:35;11.52;;;6.25;;
49626;SDS011;35527;54.616;39.786;2024-03-25T17:52:43;11.07;;;5.93;;
49626;SDS011;35527;54.616;39.786;2024-03-25T17:55:46;14.30;;;6.10;;
49626;SDS011;35527;54.616;39.786;2024-03-25T17:58:51;13.90;;;10.30;;
49626;SDS011;35527;54.616;39.786;2024-03-25T18:01:53;14.10;;;6.88;;
49626;SDS011;35527;54.616;39.786;2024-03-25T18:04:57;12.48;;;6.40;;
49626;SDS011;35527;54.616;39.786;2024-03-25T18:07:59;13.00;;;6.65;;
49626;SDS011;35527;54.616;39.786;2024-03-25T18:11:02;12.80;;;6.63;;
49626;SDS011;35527;54.616;39.786;2024-03-25T18:14:04;14.80;;;6.40;;
49626;SDS011;35527;54.616;39.786;2024-03-25T18:17:07;14.32;;;7.13;;
49626;SDS011;35527;54.616;39.786;2024-03-25T18:20:12;16.17;;;8.00;;